Weather at Shuweihat Power Complex Heliport

Public forecast

Using degrees Celsius for public forecast. Weather courtesy of forecast.io.

Closest aviation weather report (METAR) to Shuweihat Power Complex Heliport

Closest report is Hamad International Airport, 85.0 nm (157.5 km) NW.

2024/06/17 03:00 (retrieved 51 minutes ago)

OTHH 170300Z VRB01KT CAVOK 33/21 Q1001 NOSIG

Closest aviation forecast (TAF) to Shuweihat Power Complex Heliport

Forecast is more than 6 hours old.

Closest forecast is Bahrain International Airport, 164.5 nm (304.6 km) NW.

2024/06/16 18:00 (retrieved 10 hours ago)

TAF OBBI 161700Z 1618/1800 06007KT CAVOK BECMG 1700/1702 32010KT BECMG 1715/1717 VRB05KT